createdAt,value
2023-07-03T00:00:12.467Z,16.75
2023-07-03T00:01:15.350Z,16.75
2023-07-03T00:03:03.498Z,16.75
2023-07-03T00:04:06.931Z,16.81
2023-07-03T00:05:53.381Z,16.75
2023-07-03T00:06:56.705Z,16.75
2023-07-03T00:08:42.457Z,16.75
2023-07-03T00:09:45.696Z,16.75
2023-07-03T00:11:30.626Z,16.81
2023-07-03T00:12:33.657Z,16.81
2023-07-03T00:14:18.876Z,16.81
2023-07-03T00:15:22.250Z,16.81
2023-07-03T00:17:08.293Z,16.75
2023-07-03T00:18:11.780Z,16.75
2023-07-03T00:19:56.788Z,16.75
2023-07-03T00:21:00.117Z,16.75
2023-07-03T00:22:45.521Z,16.75
2023-07-03T00:23:48.848Z,16.69
2023-07-03T00:25:33.733Z,16.69
2023-07-03T00:26:37.516Z,16.75
2023-07-03T00:28:22.678Z,16.75
2023-07-03T00:29:26.163Z,16.75
2023-07-03T00:31:11.363Z,16.75
2023-07-03T00:32:14.872Z,16.75
2023-07-03T00:34:00.432Z,16.75
2023-07-03T00:35:03.492Z,16.75
2023-07-03T00:36:48.698Z,16.75
2023-07-03T00:37:51.981Z,16.75
2023-07-03T00:39:37.274Z,16.81
2023-07-03T00:40:40.697Z,16.81
2023-07-03T00:42:25.806Z,16.81
2023-07-03T00:43:29.277Z,16.81
2023-07-03T00:45:14.585Z,16.81
2023-07-03T00:46:17.762Z,16.81
2023-07-03T00:48:03.490Z,16.81
2023-07-03T00:49:06.875Z,16.81
2023-07-03T00:50:52.205Z,16.81
2023-07-03T00:51:55.400Z,16.75
2023-07-03T00:53:40.611Z,16.75
2023-07-03T00:54:43.871Z,16.75
2023-07-03T00:56:29.338Z,16.75
2023-07-03T00:57:32.572Z,16.75
2023-07-03T00:59:18.040Z,16.75
2023-07-03T01:01:15.469Z,16.75
2023-07-03T01:03:01.423Z,16.75
2023-07-03T01:04:04.541Z,16.75
2023-07-03T01:05:51.232Z,16.75
2023-07-03T01:06:55.208Z,16.75
2023-07-03T01:08:40.492Z,16.75
2023-07-03T01:09:43.668Z,16.75
2023-07-03T01:11:29.075Z,16.75
2023-07-03T01:12:32.257Z,16.69
2023-07-03T01:14:17.611Z,16.63
2023-07-03T01:15:20.925Z,16.63
2023-07-03T01:17:07.170Z,16.63
2023-07-03T01:18:10.636Z,16.56
2023-07-03T01:19:55.929Z,16.56
2023-07-03T01:20:59.113Z,16.56
2023-07-03T01:22:44.445Z,16.50
2023-07-03T01:23:47.759Z,16.50
2023-07-03T01:25:33.212Z,16.44
2023-07-03T01:26:37.321Z,16.44
2023-07-03T01:28:22.611Z,16.38
2023-07-03T01:29:26.024Z,16.44
2023-07-03T01:31:11.189Z,16.44
2023-07-03T01:32:14.693Z,16.44
2023-07-03T01:34:00.328Z,16.50
2023-07-03T01:35:03.469Z,16.50
2023-07-03T01:36:48.572Z,16.50
2023-07-03T01:37:51.878Z,16.50
2023-07-03T01:39:36.986Z,16.44
2023-07-03T01:40:40.169Z,16.44
2023-07-03T01:42:25.701Z,16.44
2023-07-03T01:43:28.965Z,16.44
2023-07-03T01:45:14.564Z,16.44
2023-07-03T01:46:18.201Z,16.44
2023-07-03T01:48:03.995Z,16.44
2023-07-03T01:49:07.343Z,16.44
2023-07-03T01:50:52.749Z,16.38
2023-07-03T01:51:56.294Z,16.38
2023-07-03T01:53:41.423Z,16.38
2023-07-03T01:54:44.873Z,16.38
2023-07-03T01:56:30.631Z,16.38
2023-07-03T01:57:33.852Z,16.38
2023-07-03T01:59:19.651Z,16.44
2023-07-03T02:01:15.654Z,16.38
2023-07-03T02:03:01.458Z,16.38
2023-07-03T02:04:05.959Z,16.38
2023-07-03T02:05:51.415Z,16.38
2023-07-03T02:06:54.910Z,16.38
2023-07-03T02:08:40.353Z,16.38
2023-07-03T02:09:43.566Z,16.38
2023-07-03T02:11:28.731Z,16.31
2023-07-03T02:12:32.001Z,16.31
2023-07-03T02:14:17.323Z,16.31
2023-07-03T02:15:20.833Z,16.31
2023-07-03T02:17:06.723Z,16.31
2023-07-03T02:18:09.965Z,16.31
2023-07-03T02:19:55.551Z,16.31
2023-07-03T02:20:58.788Z,16.31
2023-07-03T02:22:43.792Z,16.31
2023-07-03T02:23:46.961Z,16.25
2023-07-03T02:25:32.428Z,16.25
2023-07-03T02:26:36.473Z,16.25
2023-07-03T02:28:21.774Z,16.19
2023-07-03T02:29:24.965Z,16.19
2023-07-03T02:31:10.318Z,16.19
2023-07-03T02:32:14.298Z,16.13
2023-07-03T02:33:59.963Z,16.19
2023-07-03T02:35:02.776Z,16.19
2023-07-03T02:36:48.024Z,16.13
2023-07-03T02:37:51.425Z,16.13
2023-07-03T02:39:36.435Z,16.13
2023-07-03T02:40:41.200Z,16.19
2023-07-03T02:42:26.735Z,16.13
2023-07-03T02:43:29.942Z,16.13
2023-07-03T02:45:15.187Z,16.13
2023-07-03T02:46:18.318Z,16.06
2023-07-03T02:48:04.247Z,16.06
2023-07-03T02:49:07.871Z,16.06
2023-07-03T02:50:53.436Z,16.06
2023-07-03T02:51:56.908Z,16.06
2023-07-03T02:53:42.005Z,16.06
2023-07-03T02:54:45.288Z,16.06
2023-07-03T02:56:30.770Z,16.06
2023-07-03T02:57:33.818Z,16.06
2023-07-03T02:59:18.753Z,16.06
2023-07-03T03:01:16.243Z,16.06
2023-07-03T03:03:01.967Z,16.00
2023-07-03T03:04:06.390Z,16.00
2023-07-03T03:05:52.372Z,16.00
2023-07-03T03:06:55.948Z,15.94
2023-07-03T03:08:41.610Z,15.94
2023-07-03T03:09:45.158Z,15.94
2023-07-03T03:11:30.382Z,15.94
2023-07-03T03:12:33.839Z,15.94
2023-07-03T03:14:19.601Z,15.94
2023-07-03T03:15:22.697Z,15.94
2023-07-03T03:17:08.605Z,15.94
2023-07-03T03:18:12.118Z,15.94
2023-07-03T03:19:59.914Z,15.88
2023-07-03T03:21:03.604Z,15.88
2023-07-03T03:22:49.154Z,15.88
2023-07-03T03:23:52.398Z,15.88
2023-07-03T03:25:37.869Z,15.88
2023-07-03T03:26:41.933Z,15.88
2023-07-03T03:28:27.243Z,15.88
2023-07-03T03:29:30.256Z,15.88
2023-07-03T03:31:15.506Z,15.88
2023-07-03T03:32:19.205Z,15.94
2023-07-03T03:34:04.843Z,15.81
2023-07-03T03:35:08.093Z,15.81
2023-07-03T03:36:53.614Z,15.81
2023-07-03T03:37:56.883Z,15.81
2023-07-03T03:39:42.109Z,15.81
2023-07-03T03:40:45.490Z,15.81
2023-07-03T03:42:30.819Z,15.88
2023-07-03T03:43:34.092Z,15.88
2023-07-03T03:45:19.239Z,15.88
2023-07-03T03:46:22.666Z,15.88
2023-07-03T03:48:08.443Z,15.88
2023-07-03T03:49:12.800Z,15.88
2023-07-03T03:50:57.828Z,15.88
2023-07-03T03:52:00.983Z,15.88
2023-07-03T03:53:45.975Z,15.88
2023-07-03T03:54:49.421Z,15.88
2023-07-03T03:56:34.780Z,15.88
2023-07-03T03:57:38.102Z,15.88
2023-07-03T03:59:23.409Z,15.81
2023-07-03T04:01:15.421Z,15.81
2023-07-03T04:03:01.374Z,15.81
2023-07-03T04:04:04.808Z,15.81
2023-07-03T04:05:41.011Z,15.81
2023-07-03T04:06:44.998Z,15.81
2023-07-03T04:08:30.735Z,15.81
2023-07-03T04:09:34.253Z,15.81
2023-07-03T04:11:20.038Z,15.88
2023-07-03T04:12:23.427Z,15.88
2023-07-03T04:14:09.354Z,15.88
2023-07-03T04:15:12.816Z,15.81
2023-07-03T04:16:58.778Z,15.81
2023-07-03T04:18:02.340Z,15.81
2023-07-03T04:19:47.820Z,15.81
2023-07-03T04:20:51.403Z,15.81
2023-07-03T04:22:39.998Z,15.88
2023-07-03T04:23:43.387Z,15.88
2023-07-03T04:25:28.838Z,15.88
2023-07-03T04:26:32.929Z,15.88
2023-07-03T04:28:18.648Z,15.81
2023-07-03T04:29:22.172Z,15.81
2023-07-03T04:31:07.531Z,15.81
2023-07-03T04:32:11.649Z,15.88
2023-07-03T04:34:00.247Z,15.88
2023-07-03T04:35:03.547Z,15.88
2023-07-03T04:36:49.170Z,15.88
2023-07-03T04:37:52.840Z,15.94
2023-07-03T04:39:38.522Z,15.94
2023-07-03T04:40:41.997Z,15.94
2023-07-03T04:42:27.479Z,15.88
2023-07-03T04:43:31.757Z,15.88
2023-07-03T04:45:17.545Z,15.88
2023-07-03T04:46:21.214Z,15.81
2023-07-03T04:48:07.342Z,15.81
2023-07-03T04:49:10.870Z,15.88
2023-07-03T04:50:56.516Z,15.88
2023-07-03T04:51:59.792Z,15.88
2023-07-03T04:53:45.460Z,15.88
2023-07-03T04:54:48.960Z,15.88
2023-07-03T04:56:35.765Z,15.81
2023-07-03T04:57:38.993Z,15.81
2023-07-03T04:59:24.561Z,15.88
2023-07-03T05:01:16.038Z,15.88
2023-07-03T05:03:02.111Z,15.94
2023-07-03T05:04:06.398Z,15.94
2023-07-03T05:05:53.146Z,15.94
2023-07-03T05:06:56.857Z,15.94
2023-07-03T05:08:42.827Z,15.94
2023-07-03T05:09:46.683Z,15.94
2023-07-03T05:11:32.234Z,15.94
2023-07-03T05:12:35.768Z,16.00
2023-07-03T05:14:21.779Z,16.00
2023-07-03T05:15:25.211Z,16.00
2023-07-03T05:17:11.798Z,16.06
2023-07-03T05:18:15.381Z,16.06
2023-07-03T05:20:00.609Z,16.06
2023-07-03T05:21:03.782Z,16.06
2023-07-03T05:22:49.045Z,16.06
2023-07-03T05:23:51.938Z,16.06
2023-07-03T05:25:37.143Z,16.06
2023-07-03T05:26:40.736Z,16.06
2023-07-03T05:28:26.100Z,16.13
2023-07-03T05:29:29.306Z,16.06
2023-07-03T05:31:14.826Z,16.13
2023-07-03T05:32:18.947Z,16.13
2023-07-03T05:34:04.755Z,16.13
2023-07-03T05:35:07.831Z,16.19
2023-07-03T05:37:06.988Z,16.25
2023-07-03T05:38:10.586Z,16.19
2023-07-03T05:39:57.216Z,16.25
2023-07-03T05:41:00.495Z,16.25
2023-07-03T05:42:45.782Z,16.25
2023-07-03T05:43:49.147Z,16.25
2023-07-03T05:45:34.272Z,16.25
2023-07-03T05:46:38.187Z,16.31
2023-07-03T05:48:25.240Z,16.31
2023-07-03T05:49:28.525Z,16.38
2023-07-03T05:51:14.121Z,16.38
2023-07-03T05:52:17.438Z,16.44
2023-07-03T05:54:05.600Z,16.44
2023-07-03T05:55:08.972Z,16.50
2023-07-03T05:56:54.291Z,16.56
2023-07-03T05:57:57.578Z,16.63
2023-07-03T05:59:43.004Z,16.69
2023-07-03T06:00:12.465Z,16.69
2023-07-03T06:01:15.857Z,16.69
2023-07-03T06:03:01.637Z,16.75
2023-07-03T06:04:07.639Z,16.81
2023-07-03T06:05:54.109Z,16.88
2023-07-03T06:06:57.912Z,17.00
2023-07-03T06:08:43.342Z,17.13
2023-07-03T06:09:46.602Z,17.19
2023-07-03T06:11:32.154Z,17.38
2023-07-03T06:12:35.625Z,17.44
2023-07-03T06:14:20.992Z,17.56
2023-07-03T06:15:24.130Z,17.56
2023-07-03T06:17:10.360Z,17.63
2023-07-03T06:18:14.075Z,17.69
2023-07-03T06:19:59.219Z,17.69
2023-07-03T06:21:02.538Z,17.75
2023-07-03T06:22:47.945Z,17.69
2023-07-03T06:23:51.338Z,17.63
2023-07-03T06:25:37.992Z,17.50
2023-07-03T06:26:42.168Z,17.50
2023-07-03T06:28:27.233Z,17.38
2023-07-03T06:29:30.610Z,17.38
2023-07-03T06:31:16.440Z,17.38
2023-07-03T06:32:20.055Z,17.38
2023-07-03T06:34:05.453Z,17.38
2023-07-03T06:35:08.785Z,17.31
2023-07-03T06:36:54.528Z,17.31
2023-07-03T06:37:57.572Z,17.31
2023-07-03T06:39:43.014Z,17.31
2023-07-03T06:40:46.185Z,17.31
2023-07-03T06:42:31.306Z,17.31
2023-07-03T06:43:34.760Z,17.31
2023-07-03T06:45:20.397Z,17.38
2023-07-03T06:46:24.206Z,17.38
2023-07-03T06:48:10.350Z,17.44
2023-07-03T06:49:13.544Z,17.44
2023-07-03T06:50:58.908Z,17.50
2023-07-03T06:52:02.067Z,17.44
2023-07-03T06:53:47.221Z,17.50
2023-07-03T06:54:50.512Z,17.50
2023-07-03T06:56:38.706Z,17.56
2023-07-03T06:57:41.808Z,17.56
2023-07-03T06:59:27.032Z,17.69
2023-07-03T07:01:15.208Z,17.69
2023-07-03T07:03:01.639Z,17.75
2023-07-03T07:04:06.336Z,17.81
2023-07-03T07:05:56.839Z,17.88
2023-07-03T07:07:01.127Z,17.94
2023-07-03T07:08:46.513Z,17.94
2023-07-03T07:09:49.750Z,17.94
2023-07-03T07:11:35.349Z,17.88
2023-07-03T07:12:38.737Z,17.88
2023-07-03T07:14:27.828Z,17.94
2023-07-03T07:15:31.112Z,17.94
2023-07-03T07:17:17.543Z,17.94
2023-07-03T07:18:44.420Z,17.94
2023-07-03T07:20:33.916Z,17.94
2023-07-03T07:21:37.316Z,17.88
2023-07-03T07:23:22.575Z,17.81
2023-07-03T07:24:26.002Z,17.81
2023-07-03T07:26:11.394Z,17.69
2023-07-03T07:27:14.782Z,17.69
2023-07-03T07:29:00.188Z,17.75
2023-07-03T07:30:03.605Z,17.75
2023-07-03T07:31:49.546Z,17.69
2023-07-03T07:32:53.040Z,17.63
2023-07-03T07:34:38.555Z,17.63
2023-07-03T07:35:42.191Z,17.56
2023-07-03T07:37:28.082Z,17.56
2023-07-03T07:38:31.581Z,17.50
2023-07-03T07:40:19.908Z,17.50
2023-07-03T07:41:23.196Z,17.50
2023-07-03T07:43:08.647Z,17.50
2023-07-03T07:44:11.904Z,17.50
2023-07-03T07:45:57.370Z,17.56
2023-07-03T07:47:01.052Z,17.63
2023-07-03T07:48:46.564Z,17.69
2023-07-03T07:49:49.840Z,17.81
2023-07-03T07:51:35.198Z,18.00
2023-07-03T07:52:38.814Z,18.00
2023-07-03T07:54:24.260Z,18.13
2023-07-03T07:55:27.829Z,18.06
2023-07-03T07:57:15.269Z,18.00
2023-07-03T07:58:18.817Z,18.00
2023-07-03T08:00:12.677Z,17.94
2023-07-03T08:01:16.455Z,17.94
2023-07-03T08:03:04.514Z,18.00
2023-07-03T08:04:10.139Z,18.00
2023-07-03T08:05:57.048Z,18.06
2023-07-03T08:07:00.240Z,18.13
2023-07-03T08:08:45.817Z,18.38
2023-07-03T08:09:49.096Z,18.63
2023-07-03T08:11:34.442Z,18.75
2023-07-03T08:12:37.646Z,18.81
2023-07-03T08:14:23.597Z,18.94
2023-07-03T08:15:27.046Z,19.13
2023-07-03T08:17:13.434Z,19.31
2023-07-03T08:18:17.034Z,19.38
2023-07-03T08:20:06.781Z,19.38
2023-07-03T08:21:10.172Z,19.31
2023-07-03T08:22:55.558Z,19.19
2023-07-03T08:23:58.923Z,19.13
2023-07-03T08:25:46.242Z,18.94
2023-07-03T08:26:50.266Z,18.81
2023-07-03T08:28:35.804Z,18.63
2023-07-03T08:29:39.255Z,18.56
2023-07-03T08:31:26.563Z,18.31
2023-07-03T08:32:30.576Z,18.19
2023-07-03T08:34:17.608Z,18.00
2023-07-03T08:37:37.156Z,17.88
2023-07-03T08:38:40.165Z,17.88
2023-07-03T08:40:25.958Z,17.88
2023-07-03T08:41:29.523Z,17.81
2023-07-03T08:43:14.858Z,17.81
2023-07-03T08:44:18.479Z,17.75
2023-07-03T08:46:05.343Z,17.81
2023-07-03T08:47:11.874Z,17.88
2023-07-03T08:48:59.634Z,17.94
2023-07-03T08:50:03.288Z,17.94
2023-07-03T08:52:04.867Z,18.00
2023-07-03T08:53:07.941Z,18.13
2023-07-03T08:54:53.216Z,18.38
2023-07-03T08:55:56.836Z,18.50
2023-07-03T08:57:42.701Z,18.75
2023-07-03T08:58:46.042Z,18.88
2023-07-03T09:00:12.423Z,19.00
2023-07-03T09:01:15.638Z,19.13
2023-07-03T09:03:01.449Z,19.38
2023-07-03T09:04:08.378Z,19.44
2023-07-03T09:05:54.255Z,19.38
2023-07-03T09:06:57.586Z,19.31
2023-07-03T09:08:43.198Z,19.19
2023-07-03T09:09:46.699Z,19.19
2023-07-03T09:11:33.077Z,19.19
2023-07-03T09:12:38.105Z,18.94
2023-07-03T09:14:23.612Z,18.75
2023-07-03T09:15:27.021Z,18.63
2023-07-03T09:17:13.216Z,18.38
2023-07-03T09:18:17.216Z,18.31
2023-07-03T09:20:05.055Z,18.25
2023-07-03T09:21:08.518Z,18.25
2023-07-03T09:22:53.618Z,18.25
2023-07-03T09:23:57.351Z,18.25
2023-07-03T09:25:42.658Z,18.25
2023-07-03T09:26:53.794Z,18.19
2023-07-03T09:28:41.024Z,18.19
2023-07-03T09:29:44.249Z,18.13
2023-07-03T09:31:34.251Z,18.06
2023-07-03T09:32:40.282Z,18.00
2023-07-03T09:34:25.827Z,17.88
2023-07-03T09:35:29.000Z,17.88
2023-07-03T09:37:17.770Z,17.81
2023-07-03T09:38:22.794Z,17.69
2023-07-03T09:40:09.426Z,17.56
2023-07-03T09:41:13.912Z,17.50
2023-07-03T09:42:59.877Z,17.44
2023-07-03T09:44:04.442Z,17.44
2023-07-03T09:45:54.199Z,17.44
2023-07-03T09:46:57.458Z,17.44
2023-07-03T09:48:46.824Z,17.31
2023-07-03T09:49:53.117Z,17.31
2023-07-03T09:51:55.400Z,17.31
2023-07-03T09:53:07.560Z,17.31
2023-07-03T09:54:57.555Z,17.38
2023-07-03T09:56:01.938Z,17.44
2023-07-03T09:57:47.343Z,17.56
2023-07-03T09:58:50.637Z,17.63
2023-07-03T10:00:12.129Z,17.69
2023-07-03T10:06:43.598Z,17.75
2023-07-03T10:08:32.842Z,17.75
2023-07-03T10:11:53.481Z,17.63
2023-07-03T10:13:40.871Z,17.56
2023-07-03T10:14:44.798Z,17.50
2023-07-03T10:16:30.762Z,17.44
2023-07-03T10:17:34.476Z,17.38
2023-07-03T10:19:20.038Z,17.31
2023-07-03T10:20:26.429Z,17.31
2023-07-03T10:22:13.884Z,17.31
2023-07-03T10:23:17.353Z,17.31
2023-07-03T10:25:02.854Z,17.38
2023-07-03T10:26:06.083Z,17.31
2023-07-03T10:27:54.301Z,17.38
2023-07-03T10:28:57.734Z,17.38
2023-07-03T10:30:43.641Z,17.31
2023-07-03T10:31:47.004Z,17.31
2023-07-03T10:33:32.757Z,17.38
2023-07-03T10:34:36.330Z,17.44
2023-07-03T10:36:21.901Z,17.69
2023-07-03T10:37:25.325Z,17.81
2023-07-03T10:39:10.930Z,18.00
2023-07-03T10:40:14.647Z,18.06
2023-07-03T10:42:00.160Z,18.13
2023-07-03T10:43:03.617Z,18.13
2023-07-03T10:44:49.085Z,18.13
2023-07-03T10:45:52.812Z,18.13
2023-07-03T10:47:41.946Z,18.06
2023-07-03T10:48:45.508Z,18.06
2023-07-03T10:50:30.680Z,18.00
2023-07-03T10:51:36.352Z,18.00
2023-07-03T10:53:21.907Z,17.94
2023-07-03T10:54:25.313Z,17.94
2023-07-03T10:56:11.265Z,17.88
2023-07-03T10:57:14.478Z,17.88
2023-07-03T10:59:03.588Z,18.00
2023-07-03T11:00:12.787Z,18.00
2023-07-03T11:01:16.081Z,18.00
2023-07-03T11:03:02.276Z,18.06
2023-07-03T11:04:23.239Z,18.06
2023-07-03T11:06:10.985Z,18.00
2023-07-03T11:07:14.268Z,18.00
2023-07-03T11:08:59.800Z,18.00
2023-07-03T11:10:03.057Z,17.94
2023-07-03T11:11:48.459Z,17.94
2023-07-03T11:12:51.515Z,17.81
2023-07-03T11:14:37.277Z,17.75
2023-07-03T11:15:41.148Z,17.69
2023-07-03T11:17:27.868Z,17.56
2023-07-03T11:22:50.801Z,17.81
2023-07-03T11:23:58.932Z,17.94
2023-07-03T11:28:52.490Z,18.44
2023-07-03T11:30:37.621Z,18.56
2023-07-03T11:31:41.661Z,18.63
2023-07-03T11:37:02.632Z,18.50
2023-07-03T11:41:00.515Z,18.06
2023-07-03T11:44:19.443Z,18.00
2023-07-03T11:45:25.898Z,18.00
2023-07-03T11:47:11.956Z,17.94
2023-07-03T11:48:15.998Z,17.88
2023-07-03T11:50:01.252Z,17.81
2023-07-03T11:51:05.682Z,17.75
2023-07-03T11:52:51.464Z,17.69
2023-07-03T11:53:54.763Z,17.63
2023-07-03T11:55:40.569Z,17.50
2023-07-03T11:56:44.284Z,17.50
2023-07-03T11:58:49.842Z,17.44
2023-07-03T11:59:56.565Z,17.44
2023-07-03T12:00:12.290Z,17.44
2023-07-03T12:01:15.955Z,17.44
2023-07-03T12:03:02.201Z,17.38
2023-07-03T12:04:06.074Z,17.38
2023-07-03T12:05:51.763Z,17.31
2023-07-03T12:06:55.514Z,17.25
2023-07-03T12:08:40.827Z,17.19
2023-07-03T12:09:44.333Z,17.13
2023-07-03T12:11:31.895Z,17.00
2023-07-03T12:12:35.376Z,17.00
2023-07-03T12:14:21.349Z,16.94
2023-07-03T12:15:24.751Z,16.88
2023-07-03T12:17:10.833Z,16.88
2023-07-03T12:18:14.647Z,16.88
2023-07-03T12:20:00.268Z,16.88
2023-07-03T12:21:03.772Z,16.88
2023-07-03T12:22:49.107Z,16.94
2023-07-03T12:23:52.306Z,16.94
2023-07-03T12:25:37.613Z,17.06
2023-07-03T12:26:41.359Z,17.06
2023-07-03T12:28:26.960Z,17.19
2023-07-03T12:29:30.222Z,17.25
2023-07-03T12:31:15.928Z,17.31
2023-07-03T12:32:20.088Z,17.38
2023-07-03T12:34:06.158Z,17.50
2023-07-03T12:35:09.410Z,17.56
2023-07-03T12:37:02.136Z,17.75
2023-07-03T12:38:06.417Z,17.88
2023-07-03T12:39:51.889Z,17.94
2023-07-03T12:40:55.332Z,18.00
2023-07-03T12:42:40.643Z,18.06
2023-07-03T12:43:44.154Z,18.13
2023-07-03T12:45:47.430Z,18.13
2023-07-03T12:46:51.059Z,18.13
2023-07-03T12:48:36.773Z,18.06
2023-07-03T12:49:40.025Z,18.00
2023-07-03T12:51:29.749Z,17.88
2023-07-03T12:52:36.035Z,17.81
2023-07-03T12:54:21.741Z,17.69
2023-07-03T12:55:28.592Z,17.69
2023-07-03T12:57:14.583Z,17.56
2023-07-03T12:58:18.144Z,17.56
2023-07-03T13:00:11.985Z,17.63
2023-07-03T13:01:16.304Z,17.63
2023-07-03T13:03:01.866Z,17.63
2023-07-03T13:04:05.053Z,17.56
2023-07-03T13:05:54.169Z,17.56
2023-07-03T13:06:58.729Z,17.50
2023-07-03T13:08:44.108Z,17.56
2023-07-03T13:09:47.495Z,17.56
2023-07-03T13:11:33.930Z,17.56
2023-07-03T13:12:37.270Z,17.63
2023-07-03T13:14:22.876Z,17.69
2023-07-03T13:15:26.601Z,17.81
2023-07-03T13:17:12.824Z,17.88
2023-07-03T13:18:16.538Z,18.00
2023-07-03T13:20:01.726Z,18.06
2023-07-03T13:21:05.258Z,18.13
2023-07-03T13:22:50.330Z,18.19
2023-07-03T13:23:53.529Z,18.19
2023-07-03T13:25:39.117Z,18.25
2023-07-03T13:26:43.166Z,18.25
2023-07-03T13:28:28.959Z,18.13
2023-07-03T13:29:33.571Z,18.13
2023-07-03T13:31:18.964Z,18.00
2023-07-03T13:32:44.696Z,18.00
2023-07-03T13:34:30.733Z,18.00
2023-07-03T13:35:34.135Z,18.00
2023-07-03T13:37:19.636Z,18.06
2023-07-03T13:38:23.123Z,18.13
2023-07-03T13:40:09.007Z,18.25
2023-07-03T13:41:12.386Z,18.25
2023-07-03T13:42:57.792Z,18.31
2023-07-03T13:44:00.998Z,18.38
2023-07-03T13:45:46.737Z,18.38
2023-07-03T13:46:51.049Z,18.44
2023-07-03T13:48:36.919Z,18.50
2023-07-03T13:49:40.066Z,18.50
2023-07-03T13:51:25.822Z,18.44
2023-07-03T13:52:29.284Z,18.44
2023-07-03T13:54:15.525Z,18.44
2023-07-03T13:55:19.009Z,18.44
2023-07-03T13:57:06.564Z,18.44
2023-07-03T13:58:09.770Z,18.44
2023-07-03T13:59:55.038Z,18.44
2023-07-03T14:00:12.734Z,18.44
2023-07-03T14:01:25.397Z,18.44
2023-07-03T14:03:30.547Z,18.44
2023-07-03T14:04:38.288Z,18.44
2023-07-03T14:06:24.756Z,18.50
2023-07-03T14:07:28.193Z,18.50
2023-07-03T14:09:14.164Z,18.44
2023-07-03T14:10:17.691Z,18.38
2023-07-03T14:12:03.069Z,18.38
2023-07-03T14:13:06.352Z,18.31
2023-07-03T14:14:53.860Z,18.31
2023-07-03T14:15:57.322Z,18.31
2023-07-03T14:17:42.964Z,18.25
2023-07-03T14:18:47.092Z,18.25
2023-07-03T14:20:36.081Z,18.19
2023-07-03T14:21:39.453Z,18.13
2023-07-03T14:23:25.227Z,18.06
2023-07-03T14:24:28.803Z,18.06
2023-07-03T14:26:14.325Z,18.06
2023-07-03T14:27:17.764Z,18.13
2023-07-03T14:29:03.421Z,18.13
2023-07-03T14:30:06.955Z,18.13
2023-07-03T14:31:52.476Z,18.13
2023-07-03T14:33:02.217Z,18.06
2023-07-03T14:34:48.136Z,18.00
2023-07-03T14:35:51.964Z,18.00
2023-07-03T14:37:37.849Z,17.94
2023-07-03T14:38:41.295Z,17.88
2023-07-03T14:40:26.821Z,17.81
2023-07-03T14:41:30.370Z,17.81
2023-07-03T14:43:15.953Z,17.81
2023-07-03T14:44:19.236Z,17.75
2023-07-03T14:46:04.765Z,17.81
2023-07-03T14:47:08.528Z,17.75
2023-07-03T14:48:55.280Z,17.69
2023-07-03T14:49:58.575Z,17.75
2023-07-03T14:51:43.996Z,17.75
2023-07-03T14:52:47.188Z,17.81
2023-07-03T14:54:33.018Z,17.88
2023-07-03T14:55:36.644Z,17.88
2023-07-03T14:57:26.021Z,18.13
2023-07-03T14:58:29.360Z,18.19
2023-07-03T15:00:12.215Z,18.38
2023-07-03T15:01:17.255Z,18.44
2023-07-03T15:03:07.525Z,18.50
2023-07-03T15:04:12.737Z,18.50
2023-07-03T15:05:59.521Z,18.50
2023-07-03T15:07:02.716Z,18.50
2023-07-03T15:08:47.786Z,18.38
2023-07-03T15:09:51.219Z,18.38
2023-07-03T15:11:37.043Z,18.31
2023-07-03T15:12:40.400Z,18.44
2023-07-03T15:14:28.280Z,18.69
2023-07-03T15:15:31.647Z,18.94
2023-07-03T15:17:18.744Z,19.25
2023-07-03T15:18:22.574Z,19.38
2023-07-03T15:20:08.022Z,19.50
2023-07-03T15:21:14.676Z,19.56
2023-07-03T15:23:00.305Z,19.50
2023-07-03T15:24:03.700Z,19.44
2023-07-03T15:25:49.678Z,19.38
2023-07-03T15:26:53.488Z,19.31
2023-07-03T15:28:39.233Z,19.13
2023-07-03T15:29:43.728Z,19.06
2023-07-03T15:31:29.140Z,18.94
2023-07-03T15:32:35.170Z,18.88
2023-07-03T15:34:21.210Z,18.63
2023-07-03T15:35:24.752Z,18.56
2023-07-03T15:37:10.406Z,18.50
2023-07-03T15:38:13.693Z,18.44
2023-07-03T15:39:59.446Z,18.44
2023-07-03T15:41:03.051Z,18.44
2023-07-03T15:42:48.300Z,18.38
2023-07-03T15:43:51.350Z,18.38
2023-07-03T15:45:36.634Z,18.31
2023-07-03T15:46:40.083Z,18.31
2023-07-03T15:48:26.114Z,18.25
2023-07-03T15:49:32.081Z,18.25
2023-07-03T15:51:19.810Z,18.19
2023-07-03T15:52:23.268Z,18.13
2023-07-03T15:54:08.978Z,18.06
2023-07-03T15:55:14.800Z,18.06
2023-07-03T15:57:01.418Z,18.06
2023-07-03T15:58:04.906Z,18.06
2023-07-03T15:59:50.491Z,18.00
2023-07-03T16:00:11.990Z,18.06
2023-07-03T16:01:15.261Z,18.06
2023-07-03T16:03:01.164Z,18.13
2023-07-03T16:04:04.764Z,18.13
2023-07-03T16:05:41.678Z,18.19
2023-07-03T16:06:45.155Z,18.25
2023-07-03T16:08:31.883Z,18.25
2023-07-03T16:09:35.488Z,18.25
2023-07-03T16:11:21.510Z,18.25
2023-07-03T16:12:25.078Z,18.31
2023-07-03T16:14:11.099Z,18.38
2023-07-03T16:15:14.575Z,18.31
2023-07-03T16:17:01.666Z,18.38
2023-07-03T16:18:05.759Z,18.44
2023-07-03T16:19:51.608Z,18.44
2023-07-03T16:21:01.833Z,18.56
2023-07-03T16:22:47.628Z,18.56
2023-07-03T16:23:51.209Z,18.56
2023-07-03T16:25:36.974Z,18.63
2023-07-03T16:26:42.101Z,18.63
2023-07-03T16:28:27.758Z,18.75
2023-07-03T16:29:31.243Z,18.81
2023-07-03T16:31:17.448Z,19.00
2023-07-03T16:32:23.165Z,19.06
2023-07-03T16:34:09.100Z,19.13
2023-07-03T16:35:12.773Z,19.19
2023-07-03T16:36:58.335Z,19.19
2023-07-03T16:38:01.989Z,19.13
2023-07-03T16:39:47.454Z,19.19
2023-07-03T16:40:51.045Z,19.13
2023-07-03T16:42:36.798Z,19.13
2023-07-03T16:43:40.687Z,19.13
2023-07-03T16:45:26.585Z,19.06
2023-07-03T16:46:30.605Z,19.13
2023-07-03T16:48:20.990Z,19.31
2023-07-03T16:49:24.795Z,19.31
2023-07-03T16:51:10.533Z,19.31
2023-07-03T16:52:14.368Z,19.31
2023-07-03T16:54:00.414Z,19.31
2023-07-03T16:55:04.129Z,19.25
2023-07-03T16:56:49.943Z,19.19
2023-07-03T16:57:53.523Z,19.19
2023-07-03T16:59:39.425Z,19.06
2023-07-03T17:00:12.413Z,19.00
2023-07-03T17:01:15.944Z,19.00
2023-07-03T17:03:02.652Z,19.00
2023-07-03T17:04:07.270Z,19.00
2023-07-03T17:05:53.267Z,19.00
2023-07-03T17:06:56.909Z,19.00
2023-07-03T17:08:42.454Z,19.00
2023-07-03T17:09:45.970Z,19.00
2023-07-03T17:11:31.750Z,18.94
2023-07-03T17:12:35.312Z,18.94
2023-07-03T17:14:21.020Z,18.88
2023-07-03T17:15:24.340Z,18.88
2023-07-03T17:17:10.800Z,18.88
2023-07-03T17:18:15.879Z,18.88
2023-07-03T17:20:01.731Z,18.81
2023-07-03T17:21:05.411Z,18.75
2023-07-03T17:22:51.325Z,18.75
2023-07-03T17:23:55.136Z,18.69
2023-07-03T17:25:40.922Z,18.69
2023-07-03T17:26:44.909Z,18.75
2023-07-03T17:28:30.975Z,18.69
2023-07-03T17:29:34.671Z,18.69
2023-07-03T17:31:20.387Z,18.63
2023-07-03T17:32:24.729Z,18.63
2023-07-03T17:34:10.828Z,18.63
2023-07-03T17:35:14.585Z,18.63
2023-07-03T17:37:00.362Z,18.63
2023-07-03T17:38:03.799Z,18.63
2023-07-03T17:39:49.619Z,18.63
2023-07-03T17:40:53.212Z,18.63
2023-07-03T17:42:42.678Z,18.56
2023-07-03T17:43:46.177Z,18.56
2023-07-03T17:45:32.024Z,18.50
2023-07-03T17:46:36.435Z,18.50
2023-07-03T17:48:22.711Z,18.44
2023-07-03T17:49:26.721Z,18.44
2023-07-03T17:51:12.332Z,18.44
2023-07-03T17:52:16.163Z,18.44
2023-07-03T17:54:01.778Z,18.44
2023-07-03T17:55:05.409Z,18.44
2023-07-03T17:56:53.575Z,18.38
2023-07-03T17:57:57.862Z,18.38
2023-07-03T17:59:43.278Z,18.38
2023-07-03T18:00:12.039Z,18.38
2023-07-03T18:01:15.497Z,18.38
2023-07-03T18:03:01.616Z,18.31
2023-07-03T18:04:05.974Z,18.31
2023-07-03T18:05:52.146Z,18.31
2023-07-03T18:06:56.355Z,18.31
2023-07-03T18:08:42.315Z,18.31
2023-07-03T18:09:46.041Z,18.31
2023-07-03T18:11:33.242Z,18.31
2023-07-03T18:12:36.836Z,18.31
2023-07-03T18:14:22.783Z,18.38
2023-07-03T18:15:39.306Z,18.31
2023-07-03T18:17:34.468Z,18.31
2023-07-03T18:18:38.203Z,18.31
2023-07-03T18:20:24.084Z,18.31
2023-07-03T18:21:27.884Z,18.31
2023-07-03T18:23:13.475Z,18.25
2023-07-03T18:24:16.764Z,18.25
2023-07-03T18:26:02.274Z,18.19
2023-07-03T18:27:06.022Z,18.19
2023-07-03T18:28:51.844Z,18.19
2023-07-03T18:29:55.312Z,18.19
2023-07-03T18:31:41.288Z,18.19
2023-07-03T18:32:45.433Z,18.19
2023-07-03T18:34:31.639Z,18.19
2023-07-03T18:35:35.441Z,18.19
2023-07-03T18:37:21.313Z,18.19
2023-07-03T18:38:24.806Z,18.19